createdAt,value
2017-10-19T00:01:48.170Z,100699.73
2017-10-19T00:04:15.575Z,100701.03
2017-10-19T00:06:42.962Z,100704.49
2017-10-19T00:09:10.364Z,100707.03
2017-10-19T00:11:37.858Z,100708.98
2017-10-19T00:14:05.258Z,100713.61
2017-10-19T00:16:32.671Z,100708.72
2017-10-19T00:19:00.089Z,100709.73
2017-10-19T00:21:27.579Z,100707.84
2017-10-19T00:23:54.976Z,100710.43
2017-10-19T00:26:22.376Z,100713.28
2017-10-19T00:28:49.778Z,100714.36
2017-10-19T00:31:17.189Z,100713.06
2017-10-19T00:33:44.669Z,100712.95
2017-10-19T00:36:12.071Z,100711.71
2017-10-19T00:38:39.463Z,100703.80
2017-10-19T00:41:06.863Z,100708.95
2017-10-19T00:43:34.249Z,100709.14
2017-10-19T00:46:01.654Z,100709.99
2017-10-19T00:48:29.051Z,100702.63
2017-10-19T00:50:56.455Z,100709.41
2017-10-19T00:53:23.872Z,100705.27
2017-10-19T00:55:51.387Z,100702.67
2017-10-19T00:58:18.771Z,100705.20
2017-10-19T01:00:46.172Z,100702.46
2017-10-19T01:03:13.557Z,100698.33
2017-10-19T01:05:40.954Z,100699.55
2017-10-19T01:08:08.438Z,100694.80
2017-10-19T01:10:35.835Z,100695.45
2017-10-19T01:13:03.230Z,100695.84
2017-10-19T01:15:30.628Z,100699.14
2017-10-19T01:17:58.027Z,100698.64
2017-10-19T01:20:25.424Z,100698.86
2017-10-19T01:22:52.823Z,100694.56
2017-10-19T01:25:20.220Z,100694.92
2017-10-19T01:27:47.695Z,100696.69
2017-10-19T01:30:15.090Z,100696.38
2017-10-19T01:32:42.486Z,100699.20
2017-10-19T01:35:09.879Z,100696.77
2017-10-19T01:37:37.279Z,100694.84
2017-10-19T01:40:04.671Z,100694.64
2017-10-19T01:42:32.084Z,100702.42
2017-10-19T01:44:59.487Z,100688.28
2017-10-19T01:47:26.876Z,100696.86
2017-10-19T01:50:00.241Z,100700.05
2017-10-19T01:52:27.637Z,100694.00
2017-10-19T01:54:55.031Z,100692.34
2017-10-19T01:57:22.429Z,100690.52
2017-10-19T01:59:49.842Z,100694.97
2017-10-19T02:02:17.247Z,100697.28
2017-10-19T02:04:44.754Z,100690.95
2017-10-19T02:07:12.171Z,100686.77
2017-10-19T02:09:39.619Z,100687.03
2017-10-19T02:12:07.125Z,100685.42
2017-10-19T02:14:34.514Z,100681.53
2017-10-19T02:17:01.915Z,100689.80
2017-10-19T02:19:29.318Z,100691.01
2017-10-19T02:21:56.713Z,100684.30
2017-10-19T02:24:24.112Z,100691.78
2017-10-19T02:26:51.546Z,100678.32
2017-10-19T02:29:19.006Z,100681.64
2017-10-19T02:31:46.402Z,100687.20
2017-10-19T02:34:13.812Z,100685.46
2017-10-19T02:36:41.207Z,100686.88
2017-10-19T02:39:08.626Z,100695.70
2017-10-19T02:41:36.018Z,100692.09
2017-10-19T02:44:03.447Z,100692.71
2017-10-19T02:46:30.855Z,100688.16
2017-10-19T02:48:58.251Z,100692.59
2017-10-19T02:51:25.715Z,100697.70
2017-10-19T02:53:53.107Z,100697.16
2017-10-19T02:56:20.618Z,100695.84
2017-10-19T02:58:48.019Z,100693.20
2017-10-19T03:01:15.433Z,100692.18
2017-10-19T03:03:42.830Z,100696.28
2017-10-19T03:06:10.247Z,100690.06
2017-10-19T03:08:37.642Z,100690.50
2017-10-19T03:11:05.057Z,100689.70
2017-10-19T03:13:32.466Z,100691.87
2017-10-19T03:15:59.965Z,100688.81
2017-10-19T03:18:27.363Z,100691.73
2017-10-19T03:20:54.762Z,100693.31
2017-10-19T03:23:22.163Z,100695.70
2017-10-19T03:25:49.566Z,100686.89
2017-10-19T03:28:16.963Z,100693.43
2017-10-19T03:30:44.366Z,100685.91
2017-10-19T03:33:11.762Z,100689.04
2017-10-19T03:35:39.186Z,100686.38
2017-10-19T03:38:06.586Z,100680.93
2017-10-19T03:40:33.983Z,100693.01
2017-10-19T03:43:01.427Z,100687.02
2017-10-19T03:45:28.831Z,100685.22
2017-10-19T03:47:56.238Z,100685.94
2017-10-19T03:50:23.626Z,100685.46
2017-10-19T03:52:51.030Z,100686.96
2017-10-19T03:55:18.426Z,100687.70
2017-10-19T03:57:45.832Z,100688.13
2017-10-19T04:00:13.230Z,100691.80
2017-10-19T04:02:40.649Z,100692.29
2017-10-19T04:05:08.042Z,100695.90
2017-10-19T04:07:35.513Z,100692.20
2017-10-19T04:10:02.905Z,100689.30
2017-10-19T04:12:30.347Z,100692.84
2017-10-19T04:14:57.746Z,100693.09
2017-10-19T04:17:25.259Z,100687.67
2017-10-19T04:19:52.650Z,100689.97
2017-10-19T04:22:20.077Z,100683.85
2017-10-19T04:24:47.467Z,100685.97
2017-10-19T04:27:14.891Z,100689.31
2017-10-19T04:29:42.282Z,100688.02
2017-10-19T04:32:09.682Z,100701.66
2017-10-19T04:34:37.082Z,100696.62
2017-10-19T04:37:04.487Z,100701.33
2017-10-19T04:39:31.890Z,100693.52
2017-10-19T04:42:00.938Z,100697.80
2017-10-19T04:44:28.338Z,100692.73
2017-10-19T04:46:55.747Z,100688.37
2017-10-19T04:49:23.151Z,100685.22
2017-10-19T04:51:50.547Z,100689.42
2017-10-19T04:54:17.953Z,100691.92
2017-10-19T04:56:45.355Z,100687.78
2017-10-19T04:59:12.762Z,100687.17
2017-10-19T05:01:40.179Z,100693.77
2017-10-19T05:04:07.651Z,100693.28
2017-10-19T05:06:35.047Z,100688.44
2017-10-19T05:09:02.466Z,100688.02
2017-10-19T05:11:29.866Z,100692.29
2017-10-19T05:13:57.278Z,100689.28
2017-10-19T05:16:24.683Z,100683.69
2017-10-19T05:18:52.098Z,100681.26
2017-10-19T05:21:19.495Z,100682.55
2017-10-19T05:23:46.919Z,100679.52
2017-10-19T05:26:14.336Z,100686.05
2017-10-19T05:28:41.723Z,100685.12
2017-10-19T05:31:09.135Z,100679.81
2017-10-19T05:33:36.571Z,100681.28
2017-10-19T05:36:03.996Z,100671.45
2017-10-19T05:38:31.398Z,100675.50
2017-10-19T05:40:59.603Z,100675.39
2017-10-19T05:43:26.998Z,100678.97
2017-10-19T05:45:54.402Z,100682.59
2017-10-19T05:48:21.874Z,100679.23
2017-10-19T05:50:49.283Z,100678.27
2017-10-19T05:53:16.683Z,100676.33
2017-10-19T05:55:44.086Z,100672.58
2017-10-19T05:58:11.488Z,100676.50
2017-10-19T06:00:38.959Z,100669.58
2017-10-19T06:03:06.355Z,100667.22
2017-10-19T06:05:33.758Z,100668.69
2017-10-19T06:08:01.150Z,100673.69
2017-10-19T06:10:28.550Z,100677.05
2017-10-19T06:12:56.043Z,100681.53
2017-10-19T06:15:23.452Z,100681.65
2017-10-19T06:17:50.957Z,100682.67
2017-10-19T06:20:18.357Z,100683.85
2017-10-19T06:22:45.770Z,100691.31
2017-10-19T06:25:13.194Z,100699.72
2017-10-19T06:27:40.685Z,100698.39
2017-10-19T06:30:08.094Z,100708.91
2017-10-19T06:32:35.513Z,100711.97
2017-10-19T06:35:02.907Z,100703.53
2017-10-19T06:37:30.311Z,100711.76
2017-10-19T06:39:57.712Z,100709.48
2017-10-19T06:42:25.113Z,100719.88
2017-10-19T06:44:52.518Z,100718.96
2017-10-19T06:47:19.926Z,100724.59
2017-10-19T06:49:47.372Z,100719.66
2017-10-19T06:52:14.774Z,100725.94
2017-10-19T06:54:42.195Z,100722.14
2017-10-19T06:57:09.602Z,100716.58
2017-10-19T06:59:36.999Z,100714.69
2017-10-19T07:02:04.425Z,100714.14
2017-10-19T07:04:31.826Z,100707.39
2017-10-19T07:06:59.232Z,100700.23
2017-10-19T07:09:26.626Z,100703.94
2017-10-19T07:11:54.022Z,100699.52
2017-10-19T07:14:21.418Z,100703.08
2017-10-19T07:16:48.822Z,100708.74
2017-10-19T07:19:16.222Z,100711.19
2017-10-19T07:21:43.631Z,100717.66
2017-10-19T07:24:11.029Z,100709.08
2017-10-19T07:26:38.431Z,100714.16
2017-10-19T07:29:05.834Z,100710.98
2017-10-19T07:31:33.235Z,100717.36
2017-10-19T07:34:00.631Z,100712.77
2017-10-19T07:36:28.039Z,100711.63
2017-10-19T07:38:55.439Z,100720.23
2017-10-19T07:41:22.846Z,100720.35
2017-10-19T07:43:50.252Z,100726.64
2017-10-19T07:46:17.659Z,100723.81
2017-10-19T07:48:45.062Z,100721.23
2017-10-19T07:51:12.526Z,100724.93
2017-10-19T07:53:39.922Z,100726.34
2017-10-19T07:56:07.337Z,100725.41
2017-10-19T07:58:34.730Z,100727.22
2017-10-19T08:01:02.138Z,100727.28
2017-10-19T08:03:29.534Z,100725.38
2017-10-19T08:05:56.986Z,100730.12
2017-10-19T08:08:24.384Z,100725.84
2017-10-19T08:10:51.786Z,100724.96
2017-10-19T08:13:19.186Z,100724.95
2017-10-19T08:15:46.632Z,100728.93
2017-10-19T08:18:14.011Z,100730.77
2017-10-19T08:20:41.419Z,100738.23
2017-10-19T08:23:08.818Z,100740.58
2017-10-19T08:25:36.208Z,100730.41
2017-10-19T08:28:03.603Z,100733.00
2017-10-19T08:30:30.995Z,100734.06
2017-10-19T08:32:58.400Z,100731.73
2017-10-19T08:35:25.818Z,100727.86
2017-10-19T08:37:53.218Z,100718.82
2017-10-19T08:40:20.612Z,100725.33
2017-10-19T08:42:48.015Z,100724.72
2017-10-19T08:45:15.488Z,100733.10
2017-10-19T08:47:42.886Z,100733.14
2017-10-19T08:50:10.285Z,100722.55
2017-10-19T08:52:37.687Z,100727.78
2017-10-19T08:55:07.482Z,100733.61
2017-10-19T08:57:34.890Z,100727.65
2017-10-19T09:00:02.289Z,100721.13
2017-10-19T09:02:29.699Z,100725.67
2017-10-19T09:04:57.158Z,100721.16
2017-10-19T09:07:24.561Z,100722.62
2017-10-19T09:09:52.006Z,100722.68
2017-10-19T09:12:19.406Z,100717.62
2017-10-19T09:14:46.798Z,100713.77
2017-10-19T09:17:14.198Z,100717.93
2017-10-19T09:19:41.594Z,100713.59
2017-10-19T09:22:08.989Z,100716.80
2017-10-19T09:24:36.383Z,100711.12
2017-10-19T09:27:03.775Z,100715.77
2017-10-19T09:29:31.183Z,100719.27
2017-10-19T09:31:58.575Z,100716.84
2017-10-19T09:34:25.974Z,100712.90
2017-10-19T09:36:53.380Z,100716.44
2017-10-19T09:39:20.783Z,100717.30
2017-10-19T09:41:48.174Z,100708.30
2017-10-19T09:44:15.575Z,100711.81
2017-10-19T09:46:42.972Z,100712.97
2017-10-19T09:49:10.486Z,100704.76
2017-10-19T09:51:37.882Z,100703.45
2017-10-19T09:54:05.283Z,100700.30
2017-10-19T09:56:32.681Z,100699.67
2017-10-19T09:59:00.084Z,100705.41
2017-10-19T10:01:27.479Z,100711.31
2017-10-19T10:03:54.918Z,100715.02
2017-10-19T10:06:22.303Z,100717.25
2017-10-19T10:08:49.844Z,100722.99
2017-10-19T10:11:17.239Z,100727.06
2017-10-19T10:13:44.630Z,100719.69
2017-10-19T10:16:12.030Z,100714.66
2017-10-19T10:18:39.423Z,100714.69
2017-10-19T10:21:06.817Z,100718.05
2017-10-19T10:23:34.219Z,100715.87
2017-10-19T10:26:01.615Z,100712.94
2017-10-19T10:28:29.015Z,100712.42
2017-10-19T10:30:56.434Z,100712.00
2017-10-19T10:33:23.835Z,100719.73
2017-10-19T10:35:51.450Z,100709.27
2017-10-19T10:38:18.850Z,100712.21
2017-10-19T10:40:46.257Z,100710.14
2017-10-19T10:43:13.643Z,100700.41
2017-10-19T10:45:41.043Z,100693.80
2017-10-19T10:48:08.445Z,100697.53
2017-10-19T10:50:36.015Z,100698.62
2017-10-19T10:53:03.454Z,100699.22
2017-10-19T10:55:30.858Z,100692.13
2017-10-19T10:57:58.256Z,100694.32
2017-10-19T11:00:25.655Z,100689.40
2017-10-19T11:02:53.043Z,100686.58
2017-10-19T11:05:20.446Z,100679.91
2017-10-19T11:07:47.838Z,100678.01
2017-10-19T11:10:15.230Z,100674.08
2017-10-19T11:12:42.630Z,100671.77
2017-10-19T11:15:10.037Z,100672.78
2017-10-19T11:17:37.510Z,100675.26
2017-10-19T11:20:04.904Z,100679.23
2017-10-19T11:22:32.308Z,100673.86
2017-10-19T11:24:59.698Z,100673.22
2017-10-19T11:27:27.107Z,100669.52
2017-10-19T11:29:54.587Z,100663.23
2017-10-19T11:32:22.017Z,100657.78
2017-10-19T11:34:49.412Z,100647.55
2017-10-19T11:37:16.811Z,100656.25
2017-10-19T11:39:44.197Z,100649.80
2017-10-19T11:42:11.612Z,100647.87
2017-10-19T11:44:39.002Z,100645.55
2017-10-19T11:47:06.482Z,100643.11
2017-10-19T11:49:33.883Z,100641.48
2017-10-19T11:52:01.285Z,100631.69
2017-10-19T11:54:28.678Z,100633.03
2017-10-19T11:56:56.084Z,100628.50
2017-10-19T11:59:23.482Z,100622.12
2017-10-19T12:01:50.890Z,100625.48
2017-10-19T12:04:18.375Z,100623.97
2017-10-19T12:06:45.787Z,100624.05
2017-10-19T12:09:13.183Z,100621.59
2017-10-19T12:11:40.573Z,100620.02
2017-10-19T12:14:07.976Z,100613.80
2017-10-19T12:16:35.374Z,100605.77
2017-10-19T12:19:02.772Z,100613.12
2017-10-19T12:21:30.267Z,100610.88
2017-10-19T12:23:57.666Z,100610.63
2017-10-19T12:26:25.054Z,100606.66
2017-10-19T12:28:52.462Z,100610.56
2017-10-19T12:31:19.864Z,100603.61
2017-10-19T12:33:47.266Z,100598.69
2017-10-19T12:36:14.651Z,100598.50
2017-10-19T12:38:42.066Z,100597.66
2017-10-19T12:41:09.462Z,100592.48
2017-10-19T12:43:36.870Z,100591.20
2017-10-19T12:46:04.272Z,100585.55
2017-10-19T12:48:31.671Z,100587.50
2017-10-19T12:50:59.067Z,100585.51
2017-10-19T12:53:26.467Z,100581.89
2017-10-19T12:55:53.955Z,100579.19
2017-10-19T12:58:21.360Z,100575.73
2017-10-19T13:00:48.755Z,100575.23
2017-10-19T13:03:16.154Z,100566.98
2017-10-19T13:05:43.560Z,100566.00
2017-10-19T13:08:10.956Z,100568.11
2017-10-19T13:10:38.361Z,100570.27
2017-10-19T13:13:05.751Z,100561.77
2017-10-19T13:15:33.209Z,100560.14
2017-10-19T13:18:00.603Z,100558.40
2017-10-19T13:20:28.007Z,100553.59
2017-10-19T13:22:55.399Z,100545.78
2017-10-19T13:25:22.803Z,100548.57
2017-10-19T13:27:50.287Z,100538.95
2017-10-19T13:30:17.695Z,100538.94
2017-10-19T13:32:45.107Z,100531.33
2017-10-19T13:35:12.506Z,100522.24
2017-10-19T13:37:39.923Z,100523.48
2017-10-19T13:40:07.327Z,100519.97
2017-10-19T13:42:34.722Z,100512.16
2017-10-19T13:45:02.127Z,100512.99
2017-10-19T13:47:29.522Z,100517.17
2017-10-19T13:49:56.964Z,100515.77
2017-10-19T13:52:24.459Z,100514.70
2017-10-19T13:54:51.846Z,100516.78
2017-10-19T13:57:19.242Z,100511.90
2017-10-19T13:59:46.635Z,100512.59
2017-10-19T14:02:14.047Z,100513.17
2017-10-19T14:04:41.439Z,100508.80
2017-10-19T14:07:08.847Z,100500.00
2017-10-19T14:09:36.295Z,100504.20
2017-10-19T14:12:03.814Z,100494.87
2017-10-19T14:14:31.367Z,100497.64
2017-10-19T14:16:58.775Z,100490.34
2017-10-19T14:19:26.359Z,100483.38
2017-10-19T14:21:53.751Z,100486.56
2017-10-19T14:24:21.147Z,100484.81
2017-10-19T14:26:48.545Z,100485.12
2017-10-19T14:29:15.943Z,100491.73
2017-10-19T14:31:43.342Z,100488.25
2017-10-19T14:34:10.742Z,100493.80
2017-10-19T14:36:38.126Z,100496.05
2017-10-19T14:39:05.642Z,100498.73
2017-10-19T14:41:33.035Z,100497.22
2017-10-19T14:44:00.426Z,100496.95
2017-10-19T14:46:27.854Z,100493.08
2017-10-19T14:48:55.358Z,100492.34
2017-10-19T14:51:22.759Z,100487.29
2017-10-19T14:53:50.151Z,100490.98
2017-10-19T14:56:17.615Z,100486.94
2017-10-19T14:58:45.003Z,100489.47
2017-10-19T15:01:12.398Z,100485.97
2017-10-19T15:03:39.804Z,100482.02
2017-10-19T15:06:07.211Z,100493.61
2017-10-19T15:08:34.611Z,100488.92
2017-10-19T15:11:02.002Z,100491.52
2017-10-19T15:13:29.422Z,100492.25
2017-10-19T15:15:56.814Z,100487.98
2017-10-19T15:18:24.220Z,100479.20
2017-10-19T15:20:51.695Z,100480.39
2017-10-19T15:23:19.147Z,100476.76
2017-10-19T15:25:46.606Z,100478.77
2017-10-19T15:28:13.999Z,100478.06
2017-10-19T15:30:41.403Z,100473.21
2017-10-19T15:33:08.886Z,100477.89
2017-10-19T15:35:36.279Z,100473.73
2017-10-19T15:38:03.692Z,100482.59
2017-10-19T15:40:31.087Z,100478.81
2017-10-19T15:42:58.498Z,100483.85
2017-10-19T15:45:25.920Z,100475.44
2017-10-19T15:47:53.324Z,100468.09
2017-10-19T15:50:20.718Z,100468.52
2017-10-19T15:52:48.122Z,100464.22
2017-10-19T15:55:15.510Z,100469.89
2017-10-19T15:57:42.934Z,100474.37
2017-10-19T16:00:10.331Z,100472.76
2017-10-19T16:02:37.724Z,100477.95
2017-10-19T16:05:05.134Z,100480.08
2017-10-19T16:07:32.522Z,100477.45
2017-10-19T16:09:59.940Z,100476.84
2017-10-19T16:12:27.389Z,100477.26
2017-10-19T16:14:54.826Z,100479.32
2017-10-19T16:17:22.228Z,100482.97
2017-10-19T16:19:49.637Z,100483.09
2017-10-19T16:22:17.030Z,100484.53
2017-10-19T16:24:44.434Z,100483.70
2017-10-19T16:27:11.831Z,100490.66
2017-10-19T16:29:39.237Z,100486.95
2017-10-19T16:32:06.630Z,100486.92
2017-10-19T16:34:34.040Z,100483.36
2017-10-19T16:37:01.426Z,100485.65
2017-10-19T16:39:28.871Z,100479.88
2017-10-19T16:41:56.279Z,100478.78
2017-10-19T16:44:23.682Z,100473.65
2017-10-19T16:46:51.083Z,100477.62
2017-10-19T16:49:18.582Z,100486.45
2017-10-19T16:51:46.075Z,100493.32
2017-10-19T16:54:13.559Z,100485.78
2017-10-19T16:56:40.955Z,100488.94
2017-10-19T16:59:08.356Z,100486.77
2017-10-19T17:01:35.812Z,100487.02
2017-10-19T17:04:03.203Z,100485.19
2017-10-19T17:06:30.603Z,100485.19
2017-10-19T17:08:58.633Z,100490.36
2017-10-19T17:11:26.058Z,100498.41
2017-10-19T17:13:53.825Z,100495.45
2017-10-19T17:16:21.230Z,100491.83
2017-10-19T17:18:48.884Z,100500.33
2017-10-19T17:21:16.302Z,100492.61
2017-10-19T17:23:43.694Z,100495.19
2017-10-19T17:26:11.183Z,100500.66
2017-10-19T17:28:38.572Z,100492.27
2017-10-19T17:31:05.970Z,100491.77
2017-10-19T17:33:33.496Z,100487.13
2017-10-19T17:36:00.891Z,100483.55
2017-10-19T17:38:28.278Z,100492.45
2017-10-19T17:40:55.725Z,100484.19
2017-10-19T17:43:23.120Z,100483.19
2017-10-19T17:45:50.523Z,100479.88
2017-10-19T17:48:17.919Z,100477.80
2017-10-19T17:50:45.432Z,100485.14
2017-10-19T17:53:12.831Z,100480.92
2017-10-19T17:55:40.261Z,100495.64
2017-10-19T17:58:07.712Z,100490.28
2017-10-19T18:00:35.107Z,100484.56
2017-10-19T18:03:02.576Z,100482.70
2017-10-19T18:05:30.610Z,100482.47
2017-10-19T18:07:58.039Z,100481.30
2017-10-19T18:10:25.435Z,100485.77
2017-10-19T18:12:52.838Z,100490.45
2017-10-19T18:15:20.267Z,100492.09
2017-10-19T18:17:47.660Z,100482.06
2017-10-19T18:20:15.050Z,100488.02
2017-10-19T18:22:42.462Z,100491.33
2017-10-19T18:25:09.883Z,100494.58
2017-10-19T18:27:37.315Z,100494.58
2017-10-19T18:30:04.698Z,100495.38
2017-10-19T18:32:32.103Z,100500.68
2017-10-19T18:34:59.526Z,100495.36
2017-10-19T18:37:26.915Z,100496.39
2017-10-19T18:39:54.339Z,100501.30
2017-10-19T18:42:21.730Z,100494.69
2017-10-19T18:44:49.118Z,100494.27
2017-10-19T18:47:16.530Z,100494.76
2017-10-19T18:49:43.919Z,100492.39
2017-10-19T18:52:11.318Z,100485.61
2017-10-19T18:54:38.710Z,100487.17
2017-10-19T18:57:06.214Z,100490.97
2017-10-19T18:59:33.613Z,100490.53
2017-10-19T19:02:01.019Z,100491.94
2017-10-19T19:04:28.427Z,100492.89
2017-10-19T19:06:55.819Z,100490.64
2017-10-19T19:09:23.219Z,100501.16
2017-10-19T19:11:50.616Z,100496.18
2017-10-19T19:14:18.027Z,100490.14
2017-10-19T19:16:45.423Z,100489.59
2017-10-19T19:19:12.829Z,100500.42
2017-10-19T19:21:40.222Z,100504.38
2017-10-19T19:24:07.630Z,100504.53
2017-10-19T19:26:35.083Z,100509.77
2017-10-19T19:29:02.543Z,100507.53
2017-10-19T19:31:29.938Z,100505.92
2017-10-19T19:33:57.383Z,100496.99
2017-10-19T19:36:24.783Z,100492.27
2017-10-19T19:38:52.237Z,100489.31
2017-10-19T19:41:19.722Z,100497.97
2017-10-19T19:46:15.355Z,100498.03
2017-10-19T19:48:42.764Z,100499.25
2017-10-19T19:51:10.266Z,100493.12
2017-10-19T19:53:37.675Z,100490.21
2017-10-19T19:56:05.066Z,100489.31
2017-10-19T19:58:32.471Z,100488.64
2017-10-19T20:00:59.867Z,100483.41
2017-10-19T20:03:27.271Z,100481.50
2017-10-19T20:05:54.666Z,100478.92
2017-10-19T20:08:22.121Z,100482.57
2017-10-19T20:10:49.512Z,100479.71
2017-10-19T20:13:16.967Z,100482.20
2017-10-19T20:15:44.362Z,100482.97
2017-10-19T20:18:11.768Z,100483.47
2017-10-19T20:20:39.166Z,100484.25
2017-10-19T20:23:06.564Z,100491.63
2017-10-19T20:25:33.966Z,100488.71
2017-10-19T20:28:01.376Z,100494.97
2017-10-19T20:30:28.779Z,100494.69
2017-10-19T20:32:56.174Z,100494.78
2017-10-19T20:35:23.581Z,100502.34
2017-10-19T20:37:50.974Z,100499.92
2017-10-19T20:40:18.376Z,100497.39
2017-10-19T20:42:45.771Z,100501.80
2017-10-19T20:45:13.175Z,100504.59
2017-10-19T20:47:40.643Z,100496.62
2017-10-19T20:50:08.054Z,100497.48
2017-10-19T20:52:35.449Z,100502.54
2017-10-19T20:55:02.851Z,100502.55
2017-10-19T20:57:30.287Z,100494.65
2017-10-19T20:59:57.687Z,100488.13
2017-10-19T21:02:25.082Z,100485.94
2017-10-19T21:04:52.490Z,100489.86
2017-10-19T21:07:19.995Z,100495.19
2017-10-19T21:09:49.026Z,100480.77
2017-10-19T21:12:17.538Z,100486.20
2017-10-19T21:14:44.946Z,100477.60
2017-10-19T21:17:12.351Z,100467.91
2017-10-19T21:19:39.834Z,100463.86
2017-10-19T21:22:07.230Z,100465.62
2017-10-19T21:24:34.630Z,100466.05
2017-10-19T21:27:02.050Z,100465.11
2017-10-19T21:29:29.462Z,100470.02
2017-10-19T21:31:56.877Z,100463.19
2017-10-19T21:34:24.270Z,100460.24
2017-10-19T21:36:51.678Z,100447.92
2017-10-19T21:39:19.083Z,100457.39
2017-10-19T21:41:46.495Z,100450.69
2017-10-19T21:44:14.000Z,100451.73
2017-10-19T21:46:41.403Z,100455.28
2017-10-19T21:49:08.816Z,100455.72
2017-10-19T21:51:36.210Z,100454.13
2017-10-19T21:54:03.727Z,100453.67
2017-10-19T21:56:31.134Z,100446.19
2017-10-19T21:58:58.538Z,100451.95
2017-10-19T22:01:25.970Z,100453.70
2017-10-19T22:03:53.351Z,100445.18
2017-10-19T22:06:20.765Z,100448.92
2017-10-19T22:08:48.155Z,100443.81
2017-10-19T22:11:15.556Z,100445.98
2017-10-19T22:13:42.955Z,100441.09
2017-10-19T22:16:10.358Z,100440.63
2017-10-19T22:18:37.762Z,100444.48
2017-10-19T22:21:05.180Z,100441.78
2017-10-19T22:23:32.580Z,100431.88
2017-10-19T22:25:59.990Z,100438.44
2017-10-19T22:28:27.420Z,100428.00
2017-10-19T22:30:54.830Z,100436.94
2017-10-19T22:33:22.249Z,100426.39
2017-10-19T22:35:49.659Z,100421.98
2017-10-19T22:38:17.068Z,100425.94
2017-10-19T22:40:44.466Z,100436.20
2017-10-19T22:43:11.889Z,100434.75
2017-10-19T22:45:39.307Z,100432.86
2017-10-19T22:48:06.716Z,100429.02
2017-10-19T22:50:34.145Z,100428.00
2017-10-19T22:53:01.510Z,100432.65
2017-10-19T22:55:28.919Z,100438.62
2017-10-19T22:57:56.323Z,100435.12
2017-10-19T23:00:23.723Z,100442.00
2017-10-19T23:02:51.131Z,100432.59
2017-10-19T23:05:18.523Z,100435.97
2017-10-19T23:07:45.937Z,100439.73
2017-10-19T23:10:13.403Z,100446.38
2017-10-19T23:12:40.811Z,100449.23
2017-10-19T23:15:08.316Z,100448.44
2017-10-19T23:17:35.722Z,100444.00
2017-10-19T23:20:03.134Z,100446.84
2017-10-19T23:22:30.534Z,100446.78
2017-10-19T23:24:57.924Z,100440.73
2017-10-19T23:27:25.314Z,100440.22
2017-10-19T23:29:52.730Z,100434.41
2017-10-19T23:32:20.120Z,100445.80
2017-10-19T23:34:47.534Z,100437.49
2017-10-19T23:37:14.931Z,100439.48
2017-10-19T23:39:42.338Z,100439.00
2017-10-19T23:42:09.841Z,100435.76
2017-10-19T23:44:37.250Z,100442.05
2017-10-19T23:47:04.632Z,100444.46
2017-10-19T23:49:32.031Z,100446.11
2017-10-19T23:51:59.429Z,100451.22
2017-10-19T23:54:26.828Z,100444.87
2017-10-19T23:56:54.221Z,100445.59
2017-10-19T23:59:21.636Z,100444.69
